Cincinnati, Ohio
Traffic Map
Current Weather Conditions
Cincinnati, Ohio
Few Clouds
Few Clouds
68°
Feels Like: 68°
Wind Chill: 68° Ceiling: Unl
Heat Index: 68° Visibility: 10mi
Dew Point: 52° Wind: 0mph
Humidity: 56% Direction: ° ()
Pressure: 30.1in Gusts: 0mph
Raw Report DataKLUK 280053Z 00000KT 10SM FEW055 20/11 A3010 RMK AO2 SLP189 T02000111
Traffic Incident Summary
Active as of:
Severity:
Category:
InformationThere was an issue retrieving the traffic information for this location. Please try a different location or try again shortly.
Advertisements
Track Severe Weather on mobile